createdAt,value
2018-08-25T00:02:13.254Z,13.50
2018-08-25T00:07:16.817Z,12.20
2018-08-25T00:12:20.771Z,12.50
2018-08-25T00:17:24.468Z,12.25
2018-08-25T00:22:28.161Z,10.40
2018-08-25T00:27:31.757Z,10.80
2018-08-25T00:32:35.361Z,11.50
2018-08-25T00:37:39.033Z,11.50
2018-08-25T00:42:42.666Z,11.80
2018-08-25T00:47:46.368Z,11.25
2018-08-25T00:52:50.118Z,11.20
2018-08-25T00:57:53.765Z,10.00
2018-08-25T01:02:57.386Z,11.75
2018-08-25T01:08:01.068Z,11.20
2018-08-25T01:13:04.776Z,11.60
2018-08-25T01:18:08.460Z,10.50
2018-08-25T01:23:12.067Z,12.60
2018-08-25T01:28:15.719Z,10.20
2018-08-25T01:33:19.335Z,11.00
2018-08-25T01:38:22.958Z,10.00
2018-08-25T01:43:26.595Z,10.60
2018-08-25T01:48:30.275Z,9.75
2018-08-25T01:53:33.868Z,11.20
2018-08-25T01:58:37.660Z,10.25
2018-08-25T02:03:41.284Z,10.50
2018-08-25T02:08:44.931Z,9.80
2018-08-25T02:13:48.663Z,10.40
2018-08-25T02:18:52.343Z,8.50
2018-08-25T02:23:56.206Z,10.00
2018-08-25T02:28:59.830Z,9.60
2018-08-25T02:34:03.431Z,11.50
2018-08-25T02:39:10.685Z,8.40
2018-08-25T02:44:14.368Z,10.50
2018-08-25T02:49:18.041Z,11.50
2018-08-25T02:54:21.694Z,9.40
2018-08-25T02:59:25.308Z,7.25
2018-08-25T03:04:28.949Z,9.80
2018-08-25T03:09:32.589Z,8.75
2018-08-25T03:14:36.231Z,10.00
2018-08-25T03:19:39.830Z,8.20
2018-08-25T03:24:43.474Z,9.00
2018-08-25T03:29:47.115Z,9.50
2018-08-25T03:34:50.750Z,8.80
2018-08-25T03:39:54.606Z,8.25
2018-08-25T03:44:58.263Z,9.00
2018-08-25T03:50:03.851Z,7.60
2018-08-25T03:55:08.232Z,10.20
2018-08-25T04:00:11.885Z,8.40
2018-08-25T04:05:15.562Z,8.00
2018-08-25T04:10:19.246Z,10.40
2018-08-25T04:15:22.905Z,9.40
2018-08-25T04:20:26.538Z,9.40
2018-08-25T04:25:30.164Z,11.00
2018-08-25T04:30:33.974Z,9.60
2018-08-25T04:35:37.784Z,11.60
2018-08-25T04:40:41.473Z,10.20
2018-08-25T04:45:45.234Z,8.25
2018-08-25T04:50:48.886Z,9.75
2018-08-25T04:55:52.510Z,10.75
2018-08-25T05:00:56.932Z,8.25
2018-08-25T05:06:00.580Z,8.50
2018-08-25T05:11:04.227Z,10.25
2018-08-25T05:16:07.850Z,9.00
2018-08-25T05:21:11.481Z,9.75
2018-08-25T05:26:15.306Z,8.00
2018-08-25T05:31:18.892Z,8.50
2018-08-25T05:36:22.594Z,8.25
2018-08-25T05:41:26.254Z,7.50
2018-08-25T05:46:29.901Z,7.25
2018-08-25T05:51:33.490Z,6.75
2018-08-25T05:56:37.096Z,7.00
2018-08-25T06:01:40.840Z,7.00
2018-08-25T06:06:44.550Z,7.00
2018-08-25T06:11:48.188Z,8.75
2018-08-25T06:16:51.839Z,7.80
2018-08-25T06:21:55.507Z,6.60
2018-08-25T06:26:59.184Z,7.25
2018-08-25T06:32:03.103Z,8.40
2018-08-25T06:37:07.080Z,7.20
2018-08-25T06:42:11.367Z,9.25
2018-08-25T06:47:15.183Z,6.60
2018-08-25T06:52:19.309Z,5.40
2018-08-25T06:57:22.946Z,7.75
2018-08-25T07:02:26.575Z,10.50
2018-08-25T07:07:30.212Z,9.75
2018-08-25T07:12:33.881Z,10.80
2018-08-25T07:17:37.543Z,10.75
2018-08-25T07:22:41.137Z,12.00
2018-08-25T07:27:44.760Z,10.20
2018-08-25T07:32:48.373Z,11.25
2018-08-25T07:37:51.977Z,10.40
2018-08-25T07:42:55.610Z,9.60
2018-08-25T07:47:59.283Z,10.75
2018-08-25T07:53:02.926Z,11.20
2018-08-25T07:58:06.727Z,10.00
2018-08-25T08:03:10.335Z,10.25
2018-08-25T08:08:13.990Z,8.80
2018-08-25T08:13:17.622Z,6.00
2018-08-25T08:18:21.302Z,7.75
2018-08-25T08:23:24.944Z,5.80
2018-08-25T08:28:28.739Z,5.50
2018-08-25T08:33:32.478Z,5.75
2018-08-25T08:38:37.654Z,5.75
2018-08-25T08:43:41.235Z,6.75
2018-08-25T08:48:44.849Z,5.00
2018-08-25T08:59:19.345Z,4.40
2018-08-25T09:04:22.929Z,3.20
2018-08-25T09:09:26.598Z,4.40
2018-08-25T09:14:30.276Z,6.00
2018-08-25T09:19:33.956Z,4.80
2018-08-25T09:24:37.718Z,4.20
2018-08-25T09:29:41.323Z,4.00
2018-08-25T09:34:44.927Z,4.00
2018-08-25T09:39:48.591Z,4.75
2018-08-25T09:44:52.255Z,6.20
2018-08-25T09:49:55.939Z,5.00
2018-08-25T09:54:59.597Z,3.50
2018-08-25T10:00:04.347Z,5.00
2018-08-25T10:05:08.646Z,4.80
2018-08-25T10:10:12.339Z,6.40
2018-08-25T10:15:16.011Z,3.20
2018-08-25T10:20:19.682Z,5.00
2018-08-25T10:25:23.379Z,4.00
2018-08-25T10:30:27.070Z,4.60
2018-08-25T10:35:30.695Z,3.60
2018-08-25T10:40:34.527Z,3.00
2018-08-25T10:45:38.159Z,4.00
2018-08-25T10:50:41.778Z,3.75
2018-08-25T10:55:45.362Z,4.00
2018-08-25T11:00:49.277Z,5.00
2018-08-25T11:05:52.750Z,4.00
2018-08-25T11:10:56.392Z,2.00
2018-08-25T11:16:00.086Z,3.50
2018-08-25T11:21:03.848Z,3.20
2018-08-25T11:26:07.572Z,2.80
2018-08-25T11:31:11.223Z,3.00
2018-08-25T11:36:14.946Z,3.00
2018-08-25T11:41:18.590Z,2.00
2018-08-25T11:46:22.252Z,2.25
2018-08-25T11:51:25.965Z,2.40
2018-08-25T11:56:29.618Z,2.60
2018-08-25T12:01:33.822Z,3.00
2018-08-25T12:06:37.555Z,3.00
2018-08-25T12:11:41.695Z,2.00
2018-08-25T12:16:45.340Z,2.00
2018-08-25T12:21:49.070Z,1.40
2018-08-25T12:26:54.591Z,3.20
2018-08-25T12:31:58.865Z,2.00
2018-08-25T12:37:02.472Z,3.00
2018-08-25T12:42:07.072Z,1.75
2018-08-25T12:47:10.951Z,1.20
2018-08-25T12:52:14.760Z,2.00
2018-08-25T12:57:19.076Z,0.80
2018-08-25T13:02:22.757Z,1.40
2018-08-25T13:07:26.449Z,2.00
2018-08-25T13:12:30.084Z,2.00
2018-08-25T13:17:34.029Z,1.00
2018-08-25T13:22:37.759Z,1.00
2018-08-25T13:27:41.463Z,1.50
2018-08-25T13:32:45.156Z,1.50
2018-08-25T13:37:48.806Z,1.60
2018-08-25T13:42:52.421Z,0.75
2018-08-25T13:47:56.085Z,1.00
2018-08-25T13:52:59.957Z,0.60
2018-08-25T13:58:03.580Z,0.00
2018-08-25T14:03:07.783Z,1.00
2018-08-25T14:08:11.571Z,1.25
2018-08-25T14:13:15.511Z,1.00
2018-08-25T14:18:19.191Z,1.00
2018-08-25T14:23:22.802Z,1.20
2018-08-25T14:28:26.412Z,1.50
2018-08-25T14:33:30.151Z,0.00
2018-08-25T14:38:33.783Z,0.20
2018-08-25T14:43:37.408Z,0.00
2018-08-25T14:48:41.054Z,1.00
2018-08-25T14:53:44.683Z,0.60
2018-08-25T14:58:48.279Z,0.00
2018-08-25T15:03:51.879Z,1.00
2018-08-25T15:08:55.722Z,1.00
2018-08-25T15:13:59.308Z,0.25
2018-08-25T15:19:03.041Z,1.40
2018-08-25T15:24:06.754Z,0.00
2018-08-25T15:29:10.435Z,0.00
2018-08-25T15:34:14.097Z,0.00
2018-08-25T15:39:17.682Z,0.00
2018-08-25T15:44:21.473Z,0.25
2018-08-25T15:49:25.126Z,0.00
2018-08-25T15:54:29.399Z,0.00
2018-08-25T15:59:33.067Z,0.50
2018-08-25T16:04:37.036Z,0.00
2018-08-25T16:09:41.207Z,0.00
2018-08-25T16:14:44.821Z,0.00
2018-08-25T16:19:48.561Z,0.00
2018-08-25T16:24:52.147Z,0.20
2018-08-25T16:29:55.842Z,0.00
2018-08-25T16:34:59.524Z,1.00
2018-08-25T16:40:03.237Z,1.25
2018-08-25T16:45:07.922Z,1.00
2018-08-25T16:50:11.635Z,1.80
2018-08-25T16:55:15.631Z,1.60
2018-08-25T17:00:19.419Z,1.00
2018-08-25T17:05:23.214Z,3.20
2018-08-25T17:10:27.208Z,3.00
2018-08-25T17:15:30.882Z,4.00
2018-08-25T17:20:34.572Z,3.80
2018-08-25T17:25:38.178Z,4.25
2018-08-25T17:30:42.139Z,3.00
2018-08-25T17:35:46.151Z,3.00
2018-08-25T17:40:49.836Z,2.50
2018-08-25T17:45:53.610Z,3.00
2018-08-25T17:50:57.603Z,3.00
2018-08-25T17:56:01.333Z,2.00
2018-08-25T18:01:04.987Z,1.75
2018-08-25T18:06:08.619Z,2.00
2018-08-25T18:11:12.589Z,2.00
2018-08-25T18:16:16.558Z,2.75
2018-08-25T18:21:20.518Z,2.00
2018-08-25T18:26:24.454Z,3.00
2018-08-25T18:31:28.111Z,2.75
2018-08-25T18:36:31.739Z,4.00
2018-08-25T18:41:35.313Z,3.00
2018-08-25T18:46:38.885Z,2.50
2018-08-25T18:51:42.437Z,3.50
2018-08-25T18:56:46.012Z,3.00
2018-08-25T19:01:49.652Z,3.20
2018-08-25T19:06:53.349Z,2.00
2018-08-25T19:11:57.100Z,4.00
2018-08-25T19:17:01.048Z,4.40
2018-08-25T19:22:04.790Z,2.20
2018-08-25T19:27:08.507Z,2.00
2018-08-25T19:32:12.232Z,4.00
2018-08-25T19:37:15.893Z,3.25
2018-08-25T19:42:19.594Z,2.00
2018-08-25T19:47:23.430Z,3.00
2018-08-25T19:52:27.203Z,4.25
2018-08-25T19:57:30.875Z,2.40
2018-08-25T20:02:34.523Z,3.00
2018-08-25T20:07:38.164Z,3.00
2018-08-25T20:12:41.857Z,3.00
2018-08-25T20:17:45.548Z,2.00
2018-08-25T20:22:49.231Z,2.50
2018-08-25T20:27:53.051Z,1.50
2018-08-25T20:32:56.760Z,2.40
2018-08-25T20:38:00.635Z,2.00
2018-08-25T20:43:04.343Z,1.50
2018-08-25T20:48:07.677Z,1.60
2018-08-25T20:53:17.396Z,2.75
2018-08-25T20:58:21.103Z,3.00
2018-08-25T21:03:24.766Z,2.50
2018-08-25T21:08:28.462Z,4.00
2018-08-25T21:13:31.998Z,3.40
2018-08-25T21:18:35.634Z,3.25
2018-08-25T21:23:39.355Z,2.25
2018-08-25T21:28:44.171Z,3.00
2018-08-25T21:33:47.853Z,2.20
2018-08-25T21:38:51.531Z,3.50
2018-08-25T21:43:55.280Z,3.00
2018-08-25T21:48:58.879Z,3.00
2018-08-25T21:54:02.587Z,2.75
2018-08-25T21:59:06.139Z,2.75
2018-08-25T22:04:10.943Z,2.00
2018-08-25T22:09:14.533Z,3.80
2018-08-25T22:14:18.349Z,2.60
2018-08-25T22:19:21.974Z,2.50
2018-08-25T22:24:25.713Z,3.75
2018-08-25T22:29:29.356Z,2.00
2018-08-25T22:34:33.079Z,2.60
2018-08-25T22:39:36.685Z,3.20
2018-08-25T22:44:40.395Z,1.50
2018-08-25T22:49:44.229Z,2.80
2018-08-25T22:54:47.842Z,1.60
2018-08-25T22:59:51.470Z,2.00
2018-08-25T23:04:55.167Z,2.40
2018-08-25T23:09:59.082Z,2.60
2018-08-25T23:15:02.865Z,2.00
2018-08-25T23:20:06.811Z,3.00
2018-08-25T23:25:10.390Z,3.00
2018-08-25T23:30:14.056Z,2.50
2018-08-25T23:35:17.682Z,2.20
2018-08-25T23:40:21.366Z,3.00
2018-08-25T23:45:24.958Z,2.00
2018-08-25T23:50:28.756Z,2.00
2018-08-25T23:55:32.434Z,1.60
